Time;durP1;ratioP1;P1;durP2;ratioP2;P2;SDS_P1;SDS_P2;PMS_P1;PMS_P2;Temp;Humidity;BMP_temperature;BMP_pressure;BME280_temperature;BME280_humidity;BME280_pressure;Samples;Min_cycle;Max_cycle;Signal;HPM_P1;HPM_P2
2021/03/11 00:00:48;;;;;;;20.85;11.95;;;6.60;99.90;;;;;;4939506;29;20031;-88
2021/03/11 00:03:19;;;;;;;20.25;11.57;;;6.60;99.90;;;;;;4956687;29;20061;-89
2021/03/11 00:05:45;;;;;;;19.08;12.30;;;6.60;99.90;;;;;;4939376;29;20027;-89
2021/03/11 00:08:12;;;;;;;18.52;11.07;;;6.60;99.90;;;;;;4939322;29;20098;-89
2021/03/11 00:10:38;;;;;;;20.48;11.80;;;6.60;99.90;;;;;;4939105;29;20483;-88
2021/03/11 00:13:06;;;;;;;18.13;11.07;;;6.60;99.90;;;;;;4939050;29;20085;-88
2021/03/11 00:15:33;;;;;;;16.80;10.95;;;6.60;99.90;;;;;;4939296;29;20023;-88
2021/03/11 00:17:58;;;;;;;17.30;11.60;;;6.60;99.90;;;;;;4938598;29;20034;-88
2021/03/11 00:20:26;;;;;;;27.42;11.35;;;6.60;99.90;;;;;;4956538;29;20090;-88
2021/03/11 00:22:52;;;;;;;17.25;10.75;;;6.60;99.90;;;;;;4938987;29;20031;-88
2021/03/11 00:25:21;;;;;;;17.33;10.35;;;6.60;99.90;;;;;;4939024;29;20059;-87
2021/03/11 00:27:48;;;;;;;19.20;11.18;;;6.60;99.90;;;;;;4939031;29;20027;-88
2021/03/11 00:30:15;;;;;;;18.83;10.45;;;6.60;99.90;;;;;;4956363;29;20058;-88
2021/03/11 00:32:41;;;;;;;17.52;10.82;;;6.70;99.90;;;;;;4938831;29;20027;-88
2021/03/11 00:35:10;;;;;;;15.30;9.60;;;6.70;99.90;;;;;;4938782;29;20502;-89
2021/03/11 00:37:36;;;;;;;22.83;12.90;;;6.70;99.90;;;;;;4938768;29;20435;-88
2021/03/11 00:40:05;;;;;;;16.70;10.68;;;6.60;99.90;;;;;;4938815;29;20023;-87
2021/03/11 00:42:30;;;;;;;17.48;9.52;;;6.70;99.90;;;;;;4938717;29;20030;-89
2021/03/11 00:44:56;;;;;;;15.07;10.02;;;6.70;99.90;;;;;;4938854;29;20543;-89
2021/03/11 00:47:22;;;;;;;17.45;10.00;;;6.70;99.90;;;;;;4938665;29;20483;-87
2021/03/11 00:49:48;;;;;;;15.45;9.82;;;6.70;99.90;;;;;;4938597;29;20479;-88
2021/03/11 00:52:14;;;;;;;16.10;9.07;;;6.70;99.90;;;;;;4955733;29;20038;-88
2021/03/11 00:54:40;;;;;;;15.73;9.48;;;6.80;99.90;;;;;;4938385;29;20396;-89
2021/03/11 00:57:07;;;;;;;14.23;8.52;;;6.80;99.90;;;;;;4938610;29;20024;-88
2021/03/11 00:59:32;;;;;;;17.10;9.57;;;6.80;99.90;;;;;;4938497;29;20027;-88
2021/03/11 01:01:59;;;;;;;12.68;8.32;;;6.80;99.90;;;;;;4938627;29;20027;-89
2021/03/11 01:04:25;;;;;;;11.55;7.25;;;6.90;99.90;;;;;;4938453;29;20035;-88
2021/03/11 01:06:50;;;;;;;14.13;8.40;;;6.90;99.90;;;;;;4938537;29;20034;-90
2021/03/11 01:09:16;;;;;;;13.07;6.93;;;7.00;99.90;;;;;;4938395;29;20024;-87
2021/03/11 01:11:42;;;;;;;11.75;6.15;;;7.10;99.90;;;;;;4938490;29;20483;-89
2021/03/11 01:14:08;;;;;;;12.00;6.45;;;7.10;99.90;;;;;;4938251;29;20031;-87
2021/03/11 01:16:34;;;;;;;12.88;6.78;;;7.00;99.90;;;;;;4938383;29;20364;-88
2021/03/11 01:19:00;;;;;;;10.77;5.53;;;7.00;99.90;;;;;;4938324;29;20019;-88
2021/03/11 01:21:25;;;;;;;9.98;5.30;;;6.90;99.90;;;;;;4938256;29;20066;-88
2021/03/11 01:23:51;;;;;;;12.50;6.80;;;6.90;99.90;;;;;;4938218;29;20027;-87
2021/03/11 01:26:17;;;;;;;12.00;6.43;;;6.90;99.90;;;;;;4938245;29;20027;-89
2021/03/11 01:28:43;;;;;;;11.63;6.57;;;6.90;99.90;;;;;;4938376;29;20034;-88
2021/03/11 01:31:08;;;;;;;9.98;5.47;;;6.90;99.90;;;;;;4940348;28;20513;-87
2021/03/11 01:33:34;;;;;;;17.52;5.95;;;6.90;99.90;;;;;;4942263;29;20054;-88
2021/03/11 01:36:00;;;;;;;10.07;5.22;;;6.90;99.90;;;;;;4942159;29;20387;-88
2021/03/11 01:38:26;;;;;;;10.70;5.75;;;6.90;99.90;;;;;;4942087;29;20019;-89
2021/03/11 01:40:53;;;;;;;10.00;5.28;;;6.80;99.90;;;;;;4941913;29;20110;-89
2021/03/11 01:43:19;;;;;;;9.38;5.65;;;6.80;99.90;;;;;;4942069;29;20027;-88
2021/03/11 01:45:44;;;;;;;10.70;5.47;;;6.80;99.90;;;;;;4941949;29;20038;-89
2021/03/11 01:48:10;;;;;;;7.10;4.65;;;6.80;99.90;;;;;;4941885;29;20191;-89
2021/03/11 01:50:36;;;;;;;8.27;4.25;;;6.80;99.90;;;;;;4941873;29;20059;-89
2021/03/11 01:53:03;;;;;;;7.97;4.93;;;6.80;99.90;;;;;;4941744;29;20023;-88
2021/03/11 01:55:29;;;;;;;10.60;5.47;;;6.80;99.90;;;;;;4941620;29;20050;-89
2021/03/11 01:57:55;;;;;;;8.55;5.18;;;6.80;99.90;;;;;;4959223;29;20375;-87
2021/03/11 02:00:22;;;;;;;8.75;5.63;;;6.80;99.90;;;;;;4941738;29;20483;-88
2021/03/11 02:02:48;;;;;;;7.70;5.25;;;6.80;99.90;;;;;;4941788;29;20058;-88
2021/03/11 02:05:16;;;;;;;10.20;5.50;;;6.80;99.90;;;;;;4941587;29;20035;-90
2021/03/11 02:07:42;;;;;;;8.20;5.18;;;6.80;99.90;;;;;;4941159;29;20031;-88
2021/03/11 02:10:12;;;;;;;8.95;5.28;;;6.80;99.90;;;;;;4941804;29;20392;-89
2021/03/11 02:13:00;;;;;;;10.65;5.63;;;6.80;99.90;;;;;;4941393;29;20035;-88
2021/03/11 02:15:46;;;;;;;8.32;5.32;;;6.80;99.90;;;;;;4941415;29;20471;-88
2021/03/11 02:18:45;;;;;;;9.30;5.18;;;6.80;99.90;;;;;;4941427;29;20385;-89
2021/03/11 02:21:33;;;;;;;9.90;5.63;;;6.80;99.90;;;;;;4918646;29;20035;-89
2021/03/11 02:24:14;;;;;;;8.70;5.78;;;6.80;99.90;;;;;;4941334;29;20035;-89
2021/03/11 02:26:59;;;;;;;10.18;5.57;;;6.80;99.90;;;;;;4941114;29;20027;-88
2021/03/11 02:29:33;;;;;;;8.73;5.38;;;6.80;99.90;;;;;;4941096;29;20027;-88
2021/03/11 02:32:01;;;;;;;9.82;5.97;;;6.80;99.90;;;;;;4941017;29;20483;-88
2021/03/11 02:34:40;;;;;;;9.35;5.25;;;6.80;99.90;;;;;;4941009;29;20028;-88
2021/03/11 02:37:31;;;;;;;10.07;5.60;;;6.80;99.90;;;;;;4940970;29;20034;-88
2021/03/11 02:40:04;;;;;;;9.25;5.63;;;6.80;99.90;;;;;;4940899;29;20077;-89
2021/03/11 02:42:31;;;;;;;8.32;5.65;;;6.80;99.90;;;;;;4957802;28;20039;-89
2021/03/11 02:44:58;;;;;;;10.02;6.32;;;6.80;99.90;;;;;;4940915;29;20030;-88
2021/03/11 02:47:25;;;;;;;13.48;6.05;;;6.80;99.90;;;;;;4958233;29;20035;-89
2021/03/11 02:49:53;;;;;;;11.45;5.93;;;6.90;99.90;;;;;;4940740;29;20038;-90
2021/03/11 02:52:20;;;;;;;15.68;6.07;;;6.90;99.90;;;;;;4940732;29;20511;-88
2021/03/11 02:54:48;;;;;;;8.73;5.40;;;6.90;99.90;;;;;;4940678;29;20046;-88
2021/03/11 02:57:17;;;;;;;14.23;5.28;;;6.90;99.90;;;;;;4940792;29;20027;-88
2021/03/11 02:59:45;;;;;;;9.23;5.65;;;6.90;99.90;;;;;;4940668;29;20023;-88
2021/03/11 03:02:11;;;;;;;9.75;6.03;;;6.90;99.90;;;;;;4940650;29;20402;-88
2021/03/11 03:04:40;;;;;;;9.70;6.05;;;6.90;99.90;;;;;;4940755;29;20028;-87
2021/03/11 03:07:08;;;;;;;7.07;4.78;;;7.00;99.90;;;;;;4940747;29;20391;-89
2021/03/11 03:09:34;;;;;;;10.40;5.47;;;7.10;99.90;;;;;;4940411;29;20035;-88
2021/03/11 03:12:01;;;;;;;9.35;5.45;;;7.00;99.90;;;;;;4940313;29;20082;-88
2021/03/11 03:14:27;;;;;;;8.90;5.85;;;7.00;99.90;;;;;;4940323;29;20035;-88
2021/03/11 03:16:53;;;;;;;8.68;5.22;;;7.10;99.90;;;;;;4940182;29;20027;-89
2021/03/11 03:19:19;;;;;;;11.23;5.57;;;7.10;99.90;;;;;;4924468;29;20024;-88
2021/03/11 03:21:47;;;;;;;8.77;5.30;;;7.10;99.90;;;;;;4940262;29;20035;-88
2021/03/11 03:24:16;;;;;;;7.80;4.82;;;7.30;99.90;;;;;;4940132;29;20028;-88
2021/03/11 03:26:42;;;;;;;7.40;4.40;;;7.40;99.90;;;;;;4940309;29;20023;-87
2021/03/11 03:29:08;;;;;;;7.00;4.50;;;7.60;99.90;;;;;;4940176;29;20027;-88
2021/03/11 03:31:34;;;;;;;7.72;4.15;;;7.70;99.90;;;;;;4939971;29;20054;-89
2021/03/11 03:34:00;;;;;;;5.97;3.65;;;7.90;99.90;;;;;;4957287;29;20115;-88
2021/03/11 03:36:26;;;;;;;6.60;3.78;;;8.00;99.90;;;;;;4940247;29;20027;-89
2021/03/11 03:38:53;;;;;;;8.30;3.80;;;8.00;99.90;;;;;;4940185;29;20415;-86
2021/03/11 03:41:19;;;;;;;8.32;3.83;;;8.00;99.90;;;;;;4957118;29;20030;-87
2021/03/11 03:43:46;;;;;;;9.40;4.00;;;8.10;99.90;;;;;;4939996;29;20436;-88
2021/03/11 03:46:14;;;;;;;10.52;4.47;;;8.10;99.90;;;;;;4939828;29;20035;-89
2021/03/11 03:48:44;;;;;;;12.07;4.30;;;8.00;99.90;;;;;;4939647;29;20062;-88
2021/03/11 03:51:11;;;;;;;9.63;4.15;;;8.00;99.90;;;;;;4956927;29;20027;-89
2021/03/11 03:53:43;;;;;;;9.38;4.40;;;8.00;99.90;;;;;;4939073;29;20035;-87
2021/03/11 03:56:20;;;;;;;13.95;4.63;;;8.10;99.90;;;;;;4939556;29;20522;-89
2021/03/11 03:58:47;;;;;;;8.63;4.03;;;8.10;99.90;;;;;;4939811;29;20033;-88
2021/03/11 04:01:13;;;;;;;7.18;4.15;;;8.10;99.90;;;;;;4939546;29;20031;-87
2021/03/11 04:03:39;;;;;;;6.88;4.28;;;8.10;99.90;;;;;;4940278;29;20027;-89
2021/03/11 04:06:08;;;;;;;8.80;3.83;;;8.00;99.90;;;;;;4956462;29;20027;-88
2021/03/11 04:08:35;;;;;;;10.32;4.05;;;8.00;99.90;;;;;;4956589;29;20031;-88
2021/03/11 04:11:02;;;;;;;9.10;4.20;;;8.10;99.90;;;;;;4923626;29;20436;-88
2021/03/11 04:13:31;;;;;;;9.23;4.60;;;8.10;99.90;;;;;;4939212;29;20053;-87
2021/03/11 04:15:57;;;;;;;9.23;4.72;;;8.00;99.90;;;;;;4939465;29;20023;-88
2021/03/11 04:18:23;;;;;;;9.63;4.53;;;8.00;99.90;;;;;;4939783;29;20027;-90
2021/03/11 04:20:49;;;;;;;12.73;4.28;;;8.10;99.90;;;;;;4939233;29;20569;-87
2021/03/11 04:23:16;;;;;;;7.07;3.97;;;8.10;99.90;;;;;;4939574;29;20042;-88
2021/03/11 04:25:43;;;;;;;5.22;3.80;;;8.10;99.90;;;;;;4939114;29;20043;-87
2021/03/11 04:28:09;;;;;;;7.95;4.03;;;8.10;99.90;;;;;;4939140;29;20118;-90
2021/03/11 04:30:35;;;;;;;8.07;4.10;;;8.00;99.90;;;;;;4939120;29;20579;-88
2021/03/11 04:33:01;;;;;;;8.07;4.00;;;8.10;99.90;;;;;;4938809;29;20114;-89
2021/03/11 04:35:27;;;;;;;5.78;3.92;;;8.00;99.90;;;;;;4938873;29;20030;-87
2021/03/11 04:37:53;;;;;;;6.15;3.80;;;8.00;99.90;;;;;;4938857;29;20546;-88
2021/03/11 04:40:19;;;;;;;7.70;3.58;;;8.00;99.90;;;;;;4956012;29;20066;-88
2021/03/11 04:42:45;;;;;;;5.18;3.55;;;8.00;99.90;;;;;;4938952;29;20070;-90
2021/03/11 04:45:12;;;;;;;8.88;4.38;;;7.90;99.90;;;;;;4938909;29;20027;-87
2021/03/11 04:47:38;;;;;;;5.82;3.72;;;8.00;99.90;;;;;;4938825;29;20070;-91
2021/03/11 04:50:07;;;;;;;7.88;3.88;;;8.00;99.90;;;;;;4956365;29;20521;-90
2021/03/11 04:52:34;;;;;;;5.03;3.60;;;8.00;99.90;;;;;;4938540;29;20036;-89
2021/03/11 04:55:01;;;;;;;7.00;3.58;;;8.00;99.90;;;;;;4938941;29;20521;-89
2021/03/11 04:57:28;;;;;;;6.40;3.13;;;8.10;99.90;;;;;;4938953;29;20026;-88
2021/03/11 04:59:58;;;;;;;6.30;3.53;;;8.10;99.90;;;;;;4938722;29;20023;-88
2021/03/11 05:02:31;;;;;;;7.93;3.92;;;8.10;99.90;;;;;;4939007;29;20031;-88
2021/03/11 05:04:58;;;;;;;5.38;3.45;;;8.10;99.90;;;;;;4938639;29;20066;-89
2021/03/11 05:07:24;;;;;;;9.10;3.70;;;8.10;99.90;;;;;;4938811;29;20023;-87
2021/03/11 05:09:49;;;;;;;6.72;4.10;;;8.00;99.90;;;;;;4939079;29;20398;-88
2021/03/11 05:12:15;;;;;;;5.60;3.47;;;8.00;99.90;;;;;;4938567;29;20034;-91
2021/03/11 05:14:41;;;;;;;6.32;3.80;;;7.90;99.90;;;;;;4938557;29;20038;-88
2021/03/11 05:17:06;;;;;;;8.10;3.33;;;7.90;99.90;;;;;;4938569;29;20023;-89
2021/03/11 05:19:32;;;;;;;6.88;4.10;;;7.90;99.90;;;;;;4938625;29;20055;-87
2021/03/11 05:21:59;;;;;;;7.15;3.70;;;7.90;99.90;;;;;;4938732;29;20444;-87
2021/03/11 05:24:25;;;;;;;6.35;3.40;;;7.90;99.90;;;;;;4938914;29;20369;-88
2021/03/11 05:26:51;;;;;;;7.07;3.83;;;7.90;99.90;;;;;;4939006;29;20023;-89
2021/03/11 05:29:17;;;;;;;8.40;3.35;;;7.90;99.90;;;;;;4938554;29;20383;-88
2021/03/11 05:31:42;;;;;;;7.03;3.05;;;7.80;99.90;;;;;;4955494;28;20054;-90
2021/03/11 05:34:08;;;;;;;7.82;3.50;;;7.80;99.90;;;;;;4955763;29;20028;-87
2021/03/11 05:36:34;;;;;;;6.40;3.42;;;7.80;99.90;;;;;;4938329;29;20098;-88
2021/03/11 05:39:03;;;;;;;7.45;3.67;;;7.90;99.90;;;;;;4938606;29;20033;-89
2021/03/11 05:44:16;;;;;;;4.90;3.28;;;7.90;99.90;;;;;;4955688;29;20024;-89
2021/03/11 05:56:56;;;;;;;8.90;3.42;;;7.90;99.90;;;;;;4912764;29;20099;-90
2021/03/11 05:59:40;;;;;;;7.07;3.33;;;7.90;99.90;;;;;;4919333;29;20039;-89
2021/03/11 06:02:09;;;;;;;6.30;3.30;;;7.90;99.90;;;;;;4919489;29;20501;-92
2021/03/11 06:12:04;;;;;;;;;;;;;;;;;;;;;
2021/03/11 06:31:35;;;;;;;7.97;3.00;;;8.40;99.90;;;;;;4924978;28;20030;-90
2021/03/11 06:34:21;;;;;;;5.63;3.08;;;8.40;99.90;;;;;;4943053;29;20361;-91
2021/03/11 06:37:11;;;;;;;5.70;2.70;;;8.50;99.90;;;;;;4945330;29;20086;-92
2021/03/11 06:39:43;;;;;;;6.85;2.75;;;8.60;99.90;;;;;;4944309;29;20476;-89
2021/03/11 06:42:27;;;;;;;6.13;2.55;;;8.60;99.90;;;;;;4946796;29;20376;-91
2021/03/11 06:45:08;;;;;;;5.95;2.80;;;8.60;99.90;;;;;;4945776;29;20467;-90
2021/03/11 06:48:25;;;;;;;5.55;2.88;;;8.60;99.90;;;;;;4944510;29;20023;-85
2021/03/11 06:51:17;;;;;;;9.02;2.80;;;8.60;99.90;;;;;;4942081;29;20387;-90
2021/03/11 06:53:54;;;;;;;4.35;2.30;;;8.70;99.90;;;;;;4943999;29;20111;-91
2021/03/11 06:56:22;;;;;;;7.07;2.72;;;8.70;99.90;;;;;;4938839;29;20046;-89
2021/03/11 07:05:21;;;;;;;4.57;2.53;;;8.80;99.90;;;;;;4902716;29;20084;-93
2021/03/11 07:07:48;;;;;;;10.32;2.40;;;8.80;99.90;;;;;;4943115;29;20023;-93
2021/03/11 07:10:26;;;;;;;7.22;2.63;;;8.90;99.90;;;;;;4943858;29;20118;-90
2021/03/11 07:12:58;;;;;;;6.68;2.38;;;9.00;99.90;;;;;;4942675;29;20510;-90
2021/03/11 07:15:27;;;;;;;5.28;2.38;;;9.00;99.90;;;;;;4943939;29;20050;-88
2021/03/11 07:21:30;;;;;;;4.07;2.38;;;9.00;99.90;;;;;;4960974;29;20379;-93
2021/03/11 07:24:13;;;;;;;6.13;2.20;;;9.10;99.90;;;;;;4902619;29;20033;-92
2021/03/11 07:27:10;;;;;;;6.65;2.20;;;9.20;99.90;;;;;;4961436;29;20274;-90
2021/03/11 07:29:39;;;;;;;5.03;2.17;;;9.20;99.90;;;;;;4930807;29;20387;-91
2021/03/11 07:32:07;;;;;;;3.95;2.00;;;9.10;99.90;;;;;;4943538;29;20129;-90
2021/03/11 07:34:37;;;;;;;3.05;1.67;;;9.10;99.90;;;;;;4942824;29;20024;-91
2021/03/11 07:37:16;;;;;;;5.53;2.15;;;9.20;99.90;;;;;;4943421;29;20038;-92
2021/03/11 07:40:15;;;;;;;6.70;1.98;;;9.20;99.90;;;;;;4943461;29;20027;-89
2021/03/11 07:49:28;;;;;;;4.10;1.90;;;9.30;99.90;;;;;;4927340;29;20063;-88
2021/03/11 07:52:47;;;;;;;7.03;2.10;;;9.40;99.90;;;;;;4944682;29;20134;-90
2021/03/11 07:59:21;;;;;;;4.38;1.90;;;9.40;99.90;;;;;;4971755;29;20034;-90
2021/03/11 08:02:09;;;;;;;6.55;2.08;;;9.50;99.90;;;;;;4946206;29;20038;-91
2021/03/11 08:04:45;;;;;;;5.35;1.80;;;9.60;99.90;;;;;;4945100;29;20062;-92
2021/03/11 08:14:34;;;;;;;3.35;1.73;;;10.00;99.90;;;;;;4960634;29;20062;-91
2021/03/11 08:17:51;;;;;;;3.50;2.30;;;10.10;99.90;;;;;;4961803;29;20027;-92
2021/03/11 08:20:46;;;;;;;5.03;1.98;;;10.10;99.90;;;;;;4944208;29;20020;-94
2021/03/11 08:30:07;;;;;;;12.30;2.00;;;10.10;99.90;;;;;;4864712;29;20056;-93
2021/03/11 08:33:43;;;;;;;3.55;1.67;;;10.20;99.90;;;;;;4941883;29;20043;-91
2021/03/11 08:39:41;;;;;;;1.92;1.30;;;10.20;99.90;;;;;;4901027;29;20407;-91
2021/03/11 08:42:46;;;;;;;6.53;1.67;;;10.10;99.90;;;;;;4935890;29;20031;-91
2021/03/11 08:45:31;;;;;;;3.63;1.70;;;10.20;99.90;;;;;;4942123;29;20026;-90
2021/03/11 08:48:17;;;;;;;2.78;1.67;;;10.20;99.90;;;;;;4941522;29;20031;-89
2021/03/11 08:50:44;;;;;;;5.18;1.50;;;10.20;99.90;;;;;;4941721;29;20501;-89
2021/03/11 08:53:11;;;;;;;3.38;1.50;;;10.20;99.90;;;;;;4941091;29;20479;-89
2021/03/11 08:55:40;;;;;;;5.78;1.55;;;10.40;99.90;;;;;;4925285;29;20055;-90
2021/03/11 09:02:13;;;;;;;5.45;1.75;;;10.70;99.90;;;;;;4958832;29;20094;-87
2021/03/11 09:04:42;;;;;;;2.83;1.60;;;10.70;99.90;;;;;;4941420;29;20024;-90
2021/03/11 09:11:03;;;;;;;2.70;1.30;;;10.90;99.90;;;;;;4958235;29;20114;-88
2021/03/11 09:13:29;;;;;;;2.45;1.20;;;11.10;99.90;;;;;;4940626;29;20476;-89
2021/03/11 09:15:55;;;;;;;2.70;1.60;;;11.10;99.90;;;;;;4941304;29;20129;-90
2021/03/11 09:18:58;;;;;;;3.10;1.60;;;11.10;99.90;;;;;;4942240;29;20045;-90
2021/03/11 09:21:40;;;;;;;4.90;1.38;;;11.00;99.90;;;;;;4932624;29;20032;-88
2021/03/11 09:24:34;;;;;;;3.42;1.40;;;11.00;99.90;;;;;;4941772;29;20098;-92
2021/03/11 09:27:29;;;;;;;;;;;;;;;;;;;;;
2021/03/11 09:30:01;;;;;;;3.92;1.48;;;10.90;99.90;;;;;;4958109;29;20034;-90
2021/03/11 09:32:53;;;;;;;3.75;1.20;;;11.00;99.90;;;;;;4941857;29;20075;-91
2021/03/11 09:45:56;;;;;;;5.43;1.20;;;11.30;99.90;;;;;;4901032;29;20031;-90
2021/03/11 09:55:17;;;;;;;4.68;1.08;;;11.60;99.90;;;;;;4912039;29;20420;-88
2021/03/11 10:01:17;;;;;;;2.72;0.98;;;11.50;99.90;;;;;;4964995;29;20050;-93
2021/03/11 10:07:18;;;;;;;3.55;0.93;;;11.60;99.90;;;;;;4962979;29;20546;-91
2021/03/11 10:10:12;;;;;;;6.07;1.20;;;11.70;99.90;;;;;;4945232;29;20109;-88
2021/03/11 10:22:36;;;;;;;5.03;0.65;;;12.30;99.90;;;;;;4961894;29;20171;-89
2021/03/11 10:26:07;;;;;;;;;;;;;;;;;;;;;
2021/03/11 10:52:45;;;;;;;2.13;0.80;;;12.00;99.90;;;;;;4961173;29;20066;-91
2021/03/11 11:06:00;;;;;;;5.85;1.23;;;11.80;99.90;;;;;;4922620;29;20162;-90
2021/03/11 11:08:26;;;;;;;4.38;2.10;;;11.70;99.90;;;;;;4944441;29;20063;-89
2021/03/11 11:10:52;;;;;;;2.65;1.30;;;11.60;99.90;;;;;;4943249;29;20031;-89
2021/03/11 11:13:18;;;;;;;5.70;2.22;;;11.50;99.90;;;;;;4943420;29;20023;-88
2021/03/11 11:15:43;;;;;;;2.55;2.00;;;11.40;99.90;;;;;;4943352;29;20035;-89
2021/03/11 11:18:09;;;;;;;1.48;1.20;;;11.40;99.90;;;;;;4942723;29;20027;-88
2021/03/11 11:20:36;;;;;;;3.10;1.50;;;11.30;99.90;;;;;;4960299;29;20038;-88
2021/03/11 11:23:03;;;;;;;1.20;0.70;;;11.20;99.90;;;;;;4960330;29;20517;-90
2021/03/11 11:25:29;;;;;;;1.77;1.05;;;11.10;99.90;;;;;;4943247;29;20027;-90
2021/03/11 11:27:55;;;;;;;4.07;0.90;;;11.00;99.90;;;;;;4943105;29;20050;-88
2021/03/11 11:44:47;;;;;;;0.90;0.73;;;10.30;99.90;;;;;;4900863;29;20076;-88
2021/03/11 11:50:42;;;;;;;2.40;1.42;;;10.20;99.90;;;;;;4900391;29;20076;-89
2021/03/11 11:59:58;;;;;;;6.85;2.03;;;10.30;99.90;;;;;;4850864;29;20068;-89
2021/03/11 12:02:40;;;;;;;3.10;1.00;;;10.40;99.90;;;;;;4900713;29;20137;-88
2021/03/11 12:05:47;;;;;;;1.40;0.90;;;10.40;99.90;;;;;;4941386;29;20035;-90
2021/03/11 12:11:36;;;;;;;1.15;0.90;;;10.40;99.90;;;;;;4919180;29;20075;-87
2021/03/11 12:14:02;;;;;;;1.98;1.00;;;10.30;99.90;;;;;;4918021;29;20032;-88
2021/03/11 12:16:37;;;;;;;2.08;1.00;;;10.30;99.90;;;;;;4918527;29;20026;-88
2021/03/11 12:19:05;;;;;;;3.03;1.55;;;10.30;99.90;;;;;;4918681;29;20068;-89
2021/03/11 12:21:57;;;;;;;2.45;0.88;;;10.40;99.90;;;;;;4919136;29;20048;-87
2021/03/11 12:24:45;;;;;;;2.35;1.10;;;10.40;99.90;;;;;;4926033;29;20111;-86
2021/03/11 12:27:16;;;;;;;3.63;0.93;;;10.40;99.90;;;;;;4926891;29;20035;-87
2021/03/11 12:29:50;;;;;;;2.35;1.00;;;10.50;99.90;;;;;;4920019;29;20032;-88
2021/03/11 12:32:19;;;;;;;1.77;0.93;;;10.60;99.90;;;;;;4919516;29;20118;-90
2021/03/11 12:34:58;;;;;;;3.95;1.00;;;10.60;99.90;;;;;;4920255;29;20032;-88
2021/03/11 12:37:34;;;;;;;1.70;0.88;;;10.70;99.90;;;;;;4919384;29;20036;-88
2021/03/11 12:44:12;;;;;;;;;;;;;;;;;;;;;
2021/03/11 12:47:38;;;;;;;0.93;0.80;;;10.90;99.90;;;;;;4937537;29;20046;-89
2021/03/11 12:54:33;;;;;;;;;;;;;;;;;;;;;
2021/03/11 13:12:01;;;;;;;1.52;0.98;;;10.80;99.90;;;;;;4870087;29;20047;-90
2021/03/11 13:51:24;;;;;;;1.27;0.60;;;14.60;99.90;;;;;;4829100;29;20025;-92
2021/03/11 13:53:50;;;;;;;0.70;0.55;;;13.70;99.90;;;;;;4818790;29;20031;-88
2021/03/11 13:56:17;;;;;;;2.72;0.60;;;13.70;99.90;;;;;;4915184;29;20027;-92
2021/03/11 13:58:43;;;;;;;1.15;0.40;;;13.40;99.90;;;;;;4925776;29;20035;-91
2021/03/11 14:01:58;;;;;;;;;;;;;;;;;;;;;
2021/03/11 14:08:36;;;;;;;1.75;1.05;;;12.50;99.90;;;;;;4848068;29;20380;-88
2021/03/11 14:35:19;;;;;;;1.88;1.13;;;11.20;99.90;;;;;;4778853;30;20099;-89
2021/03/11 14:54:54;;;;;;;1.58;0.70;;;10.50;99.90;;;;;;4902871;29;20058;-87
2021/03/11 15:04:23;;;;;;;1.02;0.52;;;10.50;99.90;;;;;;4918515;29;20169;-91
2021/03/11 15:07:33;;;;;;;1.35;0.52;;;10.30;99.90;;;;;;4903739;29;20060;-87
2021/03/11 15:16:46;;;;;;;3.97;1.27;;;9.90;99.90;;;;;;4937461;29;20256;-89
2021/03/11 15:19:12;;;;;;;4.72;1.20;;;9.90;99.90;;;;;;4941588;29;20031;-85
2021/03/11 15:24:31;;;;;;;1.38;0.70;;;9.80;99.90;;;;;;4944696;29;20035;-90
2021/03/11 15:26:57;;;;;;;2.25;0.55;;;9.80;99.90;;;;;;4942245;29;20086;-92
2021/03/11 15:29:23;;;;;;;0.70;0.55;;;9.80;99.90;;;;;;4942279;29;20102;-89
2021/03/11 15:31:49;;;;;;;2.70;1.13;;;9.80;99.90;;;;;;4942321;29;20027;-90
2021/03/11 15:34:15;;;;;;;1.50;0.95;;;9.80;99.90;;;;;;4942612;29;20125;-92
2021/03/11 15:36:42;;;;;;;1.38;0.82;;;9.80;99.90;;;;;;4942441;29;20024;-90
2021/03/11 15:39:08;;;;;;;1.58;0.93;;;9.80;99.90;;;;;;4958542;29;20404;-88
2021/03/11 15:41:34;;;;;;;1.95;0.90;;;9.80;99.90;;;;;;4941618;29;20019;-88
2021/03/11 15:44:00;;;;;;;1.67;0.90;;;9.60;99.90;;;;;;4941342;29;20031;-91
2021/03/11 15:46:25;;;;;;;1.98;0.70;;;9.60;99.90;;;;;;4941866;29;20369;-87
2021/03/11 15:48:51;;;;;;;2.78;1.30;;;9.40;99.90;;;;;;4940536;29;20039;-90
2021/03/11 15:51:18;;;;;;;3.90;1.20;;;9.30;99.90;;;;;;4940833;29;20031;-89
2021/03/11 15:53:45;;;;;;;3.25;0.70;;;9.20;99.90;;;;;;4940659;29;20023;-87
2021/03/11 15:56:11;;;;;;;3.88;0.82;;;9.20;99.90;;;;;;4940874;29;20025;-89
2021/03/11 15:58:37;;;;;;;3.22;1.02;;;9.20;99.90;;;;;;4940710;29;20027;-89
2021/03/11 16:01:03;;;;;;;1.75;0.95;;;9.20;99.90;;;;;;4940786;29;20035;-88
2021/03/11 16:03:29;;;;;;;2.65;1.00;;;9.20;99.90;;;;;;4940632;29;20131;-88
2021/03/11 16:05:55;;;;;;;2.83;1.10;;;9.10;99.90;;;;;;4940343;29;20051;-87
2021/03/11 16:08:21;;;;;;;1.40;1.00;;;9.10;99.90;;;;;;4940611;29;20034;-92
2021/03/11 16:10:47;;;;;;;2.97;1.00;;;9.10;99.90;;;;;;4941096;29;20023;-92
2021/03/11 16:13:14;;;;;;;1.90;0.75;;;9.10;99.90;;;;;;4940434;29;20102;-91
2021/03/11 16:15:42;;;;;;;3.00;0.50;;;9.10;99.90;;;;;;4941395;29;20022;-91
2021/03/11 16:18:09;;;;;;;1.05;0.50;;;9.20;99.90;;;;;;4941715;29;20471;-91
2021/03/11 16:20:35;;;;;;;1.05;0.52;;;9.20;99.90;;;;;;4940914;29;20023;-87
2021/03/11 16:23:01;;;;;;;2.13;0.85;;;9.20;99.90;;;;;;4940516;29;20391;-89
2021/03/11 16:25:27;;;;;;;2.75;0.60;;;9.10;99.90;;;;;;4940687;29;20027;-89
2021/03/11 16:27:55;;;;;;;2.80;0.82;;;9.20;99.90;;;;;;4956702;29;20042;-89
2021/03/11 16:30:21;;;;;;;2.38;1.10;;;9.10;99.90;;;;;;4940204;29;20062;-88
2021/03/11 16:32:47;;;;;;;3.05;1.00;;;9.00;99.90;;;;;;4957395;28;20023;-89
2021/03/11 16:35:15;;;;;;;1.70;0.80;;;8.90;99.90;;;;;;4940657;29;20067;-88
2021/03/11 16:37:42;;;;;;;5.70;1.13;;;8.80;99.90;;;;;;4940598;29;20027;-89
2021/03/11 16:40:10;;;;;;;2.25;1.30;;;8.80;99.90;;;;;;4940126;29;20019;-89
2021/03/11 16:42:36;;;;;;;1.98;0.88;;;8.80;99.90;;;;;;4940220;29;20035;-89
2021/03/11 16:45:02;;;;;;;4.88;0.82;;;8.70;99.90;;;;;;4940313;29;20042;-88
2021/03/11 16:47:28;;;;;;;3.58;0.82;;;8.70;99.90;;;;;;4941459;29;20474;-89
2021/03/11 16:49:57;;;;;;;1.75;0.80;;;8.70;99.90;;;;;;4942343;29;20027;-91
2021/03/11 16:52:23;;;;;;;2.13;1.00;;;8.70;99.90;;;;;;4942520;29;20046;-90
2021/03/11 16:54:48;;;;;;;7.35;1.65;;;8.60;99.90;;;;;;4943031;29;20387;-90
2021/03/11 16:57:14;;;;;;;1.30;0.57;;;8.60;99.90;;;;;;4942954;29;20023;-88
2021/03/11 16:59:40;;;;;;;3.10;0.90;;;8.60;99.90;;;;;;4942466;28;20028;-89
2021/03/11 17:02:06;;;;;;;3.95;1.10;;;8.60;99.90;;;;;;4942194;29;20027;-88
2021/03/11 17:04:31;;;;;;;3.78;1.35;;;8.60;99.90;;;;;;4940594;29;20151;-87
2021/03/11 17:06:57;;;;;;;6.30;1.00;;;8.50;99.90;;;;;;4942235;29;20372;-91
2021/03/11 17:09:25;;;;;;;2.55;1.33;;;8.50;99.90;;;;;;4941031;29;20652;-90
2021/03/11 17:11:51;;;;;;;2.75;0.90;;;8.50;99.90;;;;;;4940470;29;20086;-90
2021/03/11 17:14:17;;;;;;;3.65;1.27;;;8.50;99.90;;;;;;4940632;29;20029;-90
2021/03/11 17:16:43;;;;;;;1.35;0.90;;;8.50;99.90;;;;;;4940033;29;20122;-91
2021/03/11 17:19:09;;;;;;;2.75;1.30;;;8.50;99.90;;;;;;4941862;29;20106;-91
2021/03/11 17:21:35;;;;;;;3.28;1.20;;;8.50;99.90;;;;;;4941164;29;20523;-88
2021/03/11 17:24:01;;;;;;;3.13;1.13;;;8.50;99.90;;;;;;4940757;29;20100;-90
2021/03/11 17:26:27;;;;;;;2.35;0.90;;;8.60;99.90;;;;;;4942127;29;20165;-91
2021/03/11 17:28:53;;;;;;;3.65;0.93;;;8.60;99.90;;;;;;4942920;29;20126;-90
2021/03/11 17:31:18;;;;;;;0.80;0.63;;;8.50;99.90;;;;;;4941549;28;20166;-89
2021/03/11 17:33:44;;;;;;;1.05;0.70;;;8.50;99.90;;;;;;4940605;29;20034;-91
2021/03/11 17:36:11;;;;;;;3.03;1.00;;;8.50;99.90;;;;;;4940022;29;20070;-90
2021/03/11 17:38:38;;;;;;;1.25;0.80;;;8.60;99.90;;;;;;4924475;29;20027;-89
2021/03/11 17:41:05;;;;;;;5.10;1.00;;;8.60;99.90;;;;;;4940976;29;20031;-88
2021/03/11 17:43:31;;;;;;;3.60;0.80;;;8.60;99.90;;;;;;4924517;29;20432;-90
2021/03/11 17:45:59;;;;;;;1.67;0.82;;;8.60;99.90;;;;;;4940749;29;20403;-90
2021/03/11 17:48:25;;;;;;;3.22;0.70;;;8.60;99.90;;;;;;4924680;29;20039;-91
2021/03/11 17:50:52;;;;;;;4.03;1.30;;;8.70;99.90;;;;;;4940836;29;20031;-92
2021/03/11 17:53:18;;;;;;;1.90;0.82;;;8.70;99.90;;;;;;4939832;29;20497;-92
2021/03/11 17:55:45;;;;;;;3.05;0.90;;;8.70;99.90;;;;;;4957612;29;20035;-91
2021/03/11 17:58:11;;;;;;;3.22;1.13;;;8.70;99.90;;;;;;4940211;29;20030;-91
2021/03/11 18:00:37;;;;;;;5.60;2.13;;;8.70;99.90;;;;;;4940962;29;20046;-91
2021/03/11 18:03:03;;;;;;;2.22;1.58;;;8.60;99.90;;;;;;4940626;29;20067;-91
2021/03/11 18:05:30;;;;;;;4.00;1.10;;;8.70;99.90;;;;;;4955686;29;20058;-92
2021/03/11 18:07:56;;;;;;;7.07;3.90;;;8.70;99.90;;;;;;4940590;29;20031;-91
2021/03/11 18:10:22;;;;;;;6.53;2.30;;;8.60;99.90;;;;;;4941332;29;20463;-91
2021/03/11 18:12:47;;;;;;;5.35;1.38;;;8.60;99.90;;;;;;4941516;29;20035;-92
2021/03/11 18:15:14;;;;;;;4.25;1.58;;;8.70;99.90;;;;;;4944263;29;20391;-91
2021/03/11 18:17:40;;;;;;;3.80;1.00;;;8.60;99.90;;;;;;4944574;29;20031;-91
2021/03/11 18:20:08;;;;;;;2.72;1.05;;;8.60;99.90;;;;;;4944813;29;20448;-91
2021/03/11 18:22:34;;;;;;;6.05;1.65;;;8.60;99.90;;;;;;4944040;29;20032;-89